Time;durP1;ratioP1;P1;durP2;ratioP2;P2;SDS_P1;SDS_P2;PMS_P1;PMS_P2;Temp;Humidity;BMP_temperature;BMP_pressure;BME280_temperature;BME280_humidity;BME280_pressure;Samples;Min_cycle;Max_cycle;Signal;HPM_P1;HPM_P2
2023/02/03 00:03:12;;;;;;;22.00;11.90;;;;;;;0.73;95.37;101000.98;187641;1230;43302;-75
2023/02/03 00:07:14;;;;;;;62.00;37.20;;;;;;;0.73;95.01;100999.95;187538;1231;43224;-75
2023/02/03 00:11:17;;;;;;;34.60;20.20;;;;;;;0.75;95.06;100993.08;187718;1231;58234;-76
2023/02/03 00:15:19;;;;;;;17.80;9.30;;;;;;;0.79;95.27;100989.82;187520;1231;43625;-76
2023/02/03 00:19:20;;;;;;;13.30;9.10;;;;;;;0.84;95.37;100987.94;187590;1232;42928;-75
2023/02/03 00:29:17;;;;;;;17.30;8.30;;;;;;;0.93;94.30;100977.53;187786;1231;42900;-75
2023/02/03 00:33:19;;;;;;;15.70;8.40;;;;;;;0.96;94.00;100972.90;187787;1230;58108;-75
2023/02/03 00:37:22;;;;;;;16.70;8.20;;;;;;;0.99;93.71;100976.47;187784;1231;42953;-75
2023/02/03 00:41:29;;;;;;;13.50;8.00;;;;;;;1.03;93.61;100968.48;187737;1232;43420;-75
2023/02/03 00:45:31;;;;;;;11.00;8.90;;;;;;;1.07;93.35;100965.58;187650;1231;43747;-76
2023/02/03 00:49:33;;;;;;;19.60;11.00;;;;;;;1.09;93.24;100962.55;187575;1230;42965;-76
2023/02/03 00:53:34;;;;;;;20.20;11.20;;;;;;;1.11;93.05;100950.60;187566;1231;58303;-75
2023/02/03 00:57:36;;;;;;;30.40;15.30;;;;;;;1.12;92.99;100942.86;187569;1232;43004;-76
2023/02/03 01:01:38;;;;;;;23.90;12.90;;;;;;;1.15;92.86;100939.98;187753;1230;43627;-77
2023/02/03 01:05:39;;;;;;;18.00;9.90;;;;;;;1.17;93.10;100935.91;187788;1230;43713;-76
2023/02/03 01:09:41;;;;;;;11.40;6.30;;;;;;;1.18;93.20;100928.19;187822;1233;43657;-75
2023/02/03 01:13:43;;;;;;;11.40;6.30;;;;;;;1.22;93.26;100924.92;187741;1231;57850;-75
2023/02/03 01:17:45;;;;;;;10.60;7.70;;;;;;;1.24;93.00;100913.65;187548;1231;43534;-76
2023/02/03 01:22:20;;;;;;;14.90;5.80;;;;;;;1.29;93.06;100909.15;187795;1230;43685;-76
2023/02/03 01:26:23;;;;;;;14.20;6.50;;;;;;;1.33;92.76;100886.45;187834;1230;43076;-77
2023/02/03 01:30:25;;;;;;;7.20;5.20;;;;;;;1.35;92.59;100868.73;187654;1230;42956;-77
2023/02/03 01:34:27;;;;;;;12.20;6.00;;;;;;;1.41;92.30;100866.81;187568;1234;57768;-76
2023/02/03 01:38:47;;;;;;;17.60;7.10;;;;;;;1.46;92.23;100855.42;187693;1231;42947;-77
2023/02/03 01:42:49;;;;;;;12.70;5.90;;;;;;;1.48;91.90;100846.10;187779;1232;42896;-75
2023/02/03 01:46:51;;;;;;;14.60;8.70;;;;;;;1.42;92.19;100831.98;187832;1231;43079;-76
2023/02/03 01:51:45;;;;;;;24.60;12.60;;;;;;;1.36;92.46;100820.66;187603;1230;43242;-75
2023/02/03 01:55:49;;;;;;;24.40;11.00;;;;;;;1.28;93.24;100802.75;187727;1230;57455;-76
2023/02/03 02:00:03;;;;;;;20.40;9.40;;;;;;;1.23;94.06;100790.51;187783;1231;42939;-76
2023/02/03 02:04:05;;;;;;;20.30;11.00;;;;;;;1.18;94.70;100773.39;187619;1230;43683;-75
2023/02/03 02:08:08;;;;;;;19.90;11.90;;;;;;;1.15;95.49;100761.78;187725;1232;43618;-76
2023/02/03 02:12:11;;;;;;;19.40;10.20;;;;;;;1.16;95.52;100764.17;187580;1230;43486;-76
2023/02/03 02:16:50;;;;;;;14.70;8.40;;;;;;;1.21;95.55;100780.96;187617;1231;58117;-77
2023/02/03 02:21:29;;;;;;;21.30;10.10;;;;;;;1.33;95.02;100784.06;187574;1230;43660;-77
2023/02/03 02:25:46;;;;;;;21.90;13.70;;;;;;;1.41;94.96;100774.32;187563;1230;42929;-76
2023/02/03 02:30:16;;;;;;;24.70;12.20;;;;;;;1.46;95.40;100758.27;187780;1230;43288;-75
2023/02/03 02:34:17;;;;;;;14.50;7.50;;;;;;;1.50;95.49;100753.04;187591;1230;43658;-76
2023/02/03 02:38:25;;;;;;;15.10;9.00;;;;;;;1.53;95.15;100731.40;187815;1232;58097;-75
2023/02/03 02:43:18;;;;;;;19.20;9.30;;;;;;;1.61;94.88;100723.47;187583;1230;43039;-75
2023/02/03 02:47:22;;;;;;;12.70;8.00;;;;;;;1.68;94.93;100711.30;186219;1240;43679;-76
2023/02/03 02:51:25;;;;;;;12.00;6.90;;;;;;;1.71;94.86;100697.34;186072;1241;43831;-75
2023/02/03 02:55:31;;;;;;;19.20;9.70;;;;;;;1.79;94.34;100687.26;186245;1242;43127;-75
2023/02/03 02:59:33;;;;;;;16.70;8.90;;;;;;;1.84;94.10;100683.23;186130;1241;58443;-75
2023/02/03 03:03:43;;;;;;;16.70;8.90;;;;;;;1.76;94.97;100681.59;186257;1241;43126;-75
2023/02/03 03:07:56;;;;;;;18.80;8.80;;;;;;;1.71;95.56;100675.34;186352;1239;43511;-75
2023/02/03 03:12:06;;;;;;;18.60;7.70;;;;;;;1.68;95.91;100659.02;186204;1240;43031;-76
2023/02/03 03:16:09;;;;;;;10.90;7.60;;;;;;;1.75;95.15;100657.35;186074;1240;43100;-76
2023/02/03 03:20:17;;;;;;;15.30;9.30;;;;;;;1.80;95.23;100657.15;186287;1241;57304;-76
2023/02/03 03:30:10;;;;;;;14.70;6.30;;;;;;;2.08;93.78;100635.55;187823;1230;43324;-75
2023/02/03 03:34:13;;;;;;;14.80;7.30;;;;;;;2.14;93.40;100630.05;187633;1230;43438;-76
2023/02/03 03:38:39;;;;;;;15.40;11.30;;;;;;;2.24;93.24;100626.70;187639;1230;42934;-76
2023/02/03 03:53:44;;;;;;;24.50;11.40;;;;;;;2.28;93.00;100599.59;186296;1238;42991;-75
2023/02/03 03:58:37;;;;;;;13.70;7.90;;;;;;;2.26;93.29;100584.98;186256;1241;43478;-76
2023/02/03 04:02:41;;;;;;;7.40;5.20;;;;;;;2.18;94.04;100579.52;186295;1240;43015;-75
2023/02/03 04:06:43;;;;;;;4.90;3.80;;;;;;;2.12;94.62;100577.81;186122;1240;57625;-75
2023/02/03 04:10:44;;;;;;;8.70;4.80;;;;;;;2.10;95.16;100578.80;186155;1239;43060;-76
2023/02/03 04:14:58;;;;;;;6.20;4.50;;;;;;;2.14;94.74;100571.11;186350;1239;43007;-75
2023/02/03 04:19:00;;;;;;;7.50;3.60;;;;;;;2.20;94.41;100560.73;186264;1239;43024;-78
2023/02/03 04:23:01;;;;;;;9.80;4.90;;;;;;;2.23;94.29;100561.13;186393;1239;43720;-74
2023/02/03 04:27:31;;;;;;;7.70;4.80;;;;;;;2.32;93.45;100566.52;186659;1230;59079;-74
2023/02/03 04:31:37;;;;;;;7.20;5.20;;;;;;;2.44;92.67;100563.05;187570;1232;43346;-74
2023/02/03 04:35:38;;;;;;;4.90;3.70;;;;;;;2.54;92.11;100561.89;187572;1232;42913;-75
2023/02/03 04:39:40;;;;;;;9.50;4.40;;;;;;;2.62;91.09;100557.52;187587;1231;43663;-73
2023/02/03 04:43:42;;;;;;;11.00;5.60;;;;;;;2.65;90.89;100551.44;187559;1232;43691;-74
2023/02/03 04:47:44;;;;;;;14.90;8.10;;;;;;;2.66;91.10;100550.33;187550;1232;58065;-74
2023/02/03 04:51:55;;;;;;;19.60;8.20;;;;;;;2.71;92.03;100544.15;187811;1230;42940;-76
2023/02/03 04:55:56;;;;;;;11.00;7.40;;;;;;;2.70;93.70;100528.64;187602;1230;42937;-76
2023/02/03 04:59:58;;;;;;;7.60;3.00;;;;;;;2.64;95.06;100521.00;187570;1230;43013;-74
2023/02/03 05:03:59;;;;;;;4.60;2.80;;;;;;;2.58;96.73;100516.73;187635;1231;43365;-76
2023/02/03 05:08:26;;;;;;;7.70;3.00;;;;;;;2.51;98.46;100503.88;187839;1230;58620;-75
2023/02/03 05:12:28;;;;;;;12.40;5.20;;;;;;;2.48;99.74;100495.48;187802;1230;43564;-75
2023/02/03 05:16:55;;;;;;;12.80;9.70;;;;;;;2.41;100.00;100492.59;187657;1230;42939;-75
2023/02/03 05:20:57;;;;;;;5.60;3.60;;;;;;;2.37;100.00;100479.65;187775;1230;43340;-76
2023/02/03 05:25:09;;;;;;;11.40;4.70;;;;;;;2.33;100.00;100463.77;187610;1230;43618;-75
2023/02/03 05:29:10;;;;;;;6.50;3.50;;;;;;;2.26;100.00;100449.51;187859;1230;57789;-76
2023/02/03 05:33:43;;;;;;;7.20;3.40;;;;;;;2.23;100.00;100440.39;187786;1230;43380;-78
2023/02/03 05:37:45;;;;;;;7.80;4.60;;;;;;;2.20;100.00;100432.46;187559;1231;43671;-76
2023/02/03 05:41:53;;;;;;;8.40;5.70;;;;;;;2.12;100.00;100419.50;187822;1230;43594;-78
2023/02/03 05:46:03;;;;;;;7.70;5.00;;;;;;;2.16;100.00;100408.15;187740;1230;43274;-80
2023/02/03 05:55:53;;;;;;;3.80;3.00;;;;;;;2.07;100.00;100367.41;187844;1230;43070;-82
2023/02/03 06:00:25;;;;;;;5.10;2.70;;;;;;;2.17;100.00;100365.21;187607;1231;43245;-79
2023/02/03 06:04:26;;;;;;;9.60;4.50;;;;;;;2.12;100.00;100343.23;187803;1230;43061;-84
2023/02/03 06:09:35;;;;;;;4.60;3.50;;;;;;;2.15;100.00;100344.19;187703;1231;43585;-83
2023/02/03 06:13:36;;;;;;;;;;;;;;;2.10;100.00;100328.63;187744;1230;57671;-83
2023/02/03 06:17:38;;;;;;;4.30;3.70;;;;;;;2.08;100.00;100323.98;187841;1231;43504;-81
2023/02/03 06:27:34;;;;;;;8.80;4.50;;;;;;;2.04;100.00;100301.80;187940;1230;43028;-79
2023/02/03 06:31:36;;;;;;;11.30;6.10;;;;;;;2.01;100.00;100295.30;187866;1230;43547;-79
2023/02/03 06:35:38;;;;;;;19.80;10.20;;;;;;;2.06;100.00;100286.80;187757;1230;57327;-76
2023/02/03 06:39:39;;;;;;;27.00;11.00;;;;;;;2.05;100.00;100284.59;187805;1230;43613;-77
2023/02/03 06:43:42;;;;;;;15.20;9.10;;;;;;;2.04;100.00;100270.80;187610;1230;42942;-77
2023/02/03 06:47:44;;;;;;;12.40;6.90;;;;;;;2.04;100.00;100259.41;187841;1231;43640;-75
2023/02/03 06:51:47;;;;;;;15.40;9.80;;;;;;;1.95;100.00;100232.58;187598;1231;42963;-75
2023/02/03 06:56:14;;;;;;;9.50;6.50;;;;;;;1.97;100.00;100234.75;187863;1231;58037;-73
2023/02/03 07:00:17;;;;;;;12.50;8.20;;;;;;;1.97;100.00;100213.05;187833;1230;42970;-72
2023/02/03 07:04:20;;;;;;;10.20;6.20;;;;;;;1.99;100.00;100203.87;187646;1230;42971;-71
2023/02/03 07:08:22;;;;;;;10.80;5.70;;;;;;;2.01;100.00;100193.27;187715;1230;42955;-71
2023/02/03 07:12:26;;;;;;;6.60;4.10;;;;;;;2.05;100.00;100177.36;187587;1231;43343;-70
2023/02/03 07:16:33;;;;;;;6.60;5.00;;;;;;;2.05;100.00;100168.80;187474;1230;57782;-70
2023/02/03 07:20:34;;;;;;;9.70;5.80;;;;;;;2.10;100.00;100164.16;187778;1230;42940;-70
2023/02/03 07:24:38;;;;;;;18.50;12.60;;;;;;;2.25;100.00;100152.10;187606;1230;43033;-68
2023/02/03 07:28:40;;;;;;;14.50;9.00;;;;;;;2.31;100.00;100140.23;187499;1231;43792;-70
2023/02/03 07:32:46;;;;;;;8.90;7.20;;;;;;;2.40;100.00;100122.65;187565;1231;43633;-69
2023/02/03 07:42:42;;;;;;;6.90;4.40;;;;;;;2.69;100.00;100107.34;187826;1230;43598;-69
2023/02/03 07:46:43;;;;;;;23.70;13.90;;;;;;;2.74;100.00;100096.41;187577;1231;42925;-69
2023/02/03 07:50:47;;;;;;;45.00;21.20;;;;;;;2.82;100.00;100088.83;187802;1230;43596;-69
2023/02/03 07:54:55;;;;;;;27.00;15.60;;;;;;;2.92;100.00;100078.30;187659;1230;43428;-70
2023/02/03 07:58:56;;;;;;;40.20;21.50;;;;;;;3.00;100.00;100069.48;187682;1230;59592;-70
2023/02/03 08:02:58;;;;;;;59.60;33.20;;;;;;;3.09;100.00;100065.49;187308;1230;511765;-70
2023/02/03 08:07:00;;;;;;;49.50;30.80;;;;;;;3.20;100.00;100067.16;187993;1230;43098;-70
2023/02/03 08:11:20;;;;;;;40.80;24.10;;;;;;;3.24;100.00;100049.23;188123;1229;42974;-70
2023/02/03 08:15:22;;;;;;;102.00;55.40;;;;;;;3.37;100.00;100037.16;187760;1229;42953;-71
2023/02/03 08:19:24;;;;;;;102.20;52.90;;;;;;;3.55;100.00;100029.49;188062;1231;58086;-71
2023/02/03 08:23:25;;;;;;;109.20;51.40;;;;;;;3.74;100.00;100014.38;187862;1229;43555;-71
2023/02/03 08:27:27;;;;;;;19.40;12.90;;;;;;;3.88;100.00;100005.84;188120;1229;43539;-71
2023/02/03 08:31:29;;;;;;;18.20;7.80;;;;;;;4.01;100.00;99999.34;188132;1230;43407;-72
2023/02/03 08:35:31;;;;;;;5.50;3.20;;;;;;;4.15;100.00;99983.25;187969;1231;42928;-72
2023/02/03 08:39:34;;;;;;;4.10;3.40;;;;;;;4.27;100.00;99968.52;187770;1230;57903;-71
2023/02/03 08:43:36;;;;;;;3.70;2.60;;;;;;;4.36;100.00;99961.29;187683;1230;43603;-71
2023/02/03 08:47:40;;;;;;;9.20;4.90;;;;;;;4.39;100.00;99962.48;187760;1230;43606;-71
2023/02/03 08:52:08;;;;;;;5.30;3.50;;;;;;;4.47;100.00;99957.98;188074;1230;43736;-72
2023/02/03 08:56:53;;;;;;;3.30;3.00;;;;;;;4.54;100.00;99951.00;187522;1231;43759;-73
2023/02/03 09:05:31;;;;;;;3.40;2.80;;;;;;;4.70;100.00;99935.63;187432;1231;43674;-74
2023/02/03 09:09:32;;;;;;;4.60;3.70;;;;;;;4.79;100.00;99927.73;187446;1231;42964;-74
2023/02/03 09:13:36;;;;;;;4.90;2.90;;;;;;;4.92;100.00;99922.84;187539;1231;42989;-75
2023/02/03 09:17:38;;;;;;;6.40;2.90;;;;;;;4.98;100.00;99909.96;187394;1231;42983;-77
2023/02/03 09:21:49;;;;;;;5.70;3.10;;;;;;;5.05;100.00;99903.38;187423;1230;58034;-79
2023/02/03 09:30:14;;;;;;;4.00;3.20;;;;;;;5.14;100.00;99889.98;186864;1235;44566;-91
2023/02/03 09:45:42;;;;;;;6.80;5.30;;;;;;;5.33;100.00;99850.81;187442;1230;58368;-80
2023/02/03 10:18:49;;;;;;;3.20;2.90;;;;;;;5.84;100.00;99739.77;187675;1231;74455;-76
2023/02/03 10:32:32;;;;;;;3.40;2.40;;;;;;;5.94;100.00;99686.15;187179;1232;57897;-90
2023/02/03 10:36:56;;;;;;;2.80;2.20;;;;;;;5.93;100.00;99674.48;186870;1230;43890;-90
2023/02/03 10:40:59;;;;;;;1.70;1.10;;;;;;;5.92;100.00;99653.75;187050;1230;43770;-90
2023/02/03 10:45:03;;;;;;;2.00;1.10;;;;;;;5.95;100.00;99634.36;186935;1231;43729;-90
2023/02/03 10:49:08;;;;;;;1.50;1.40;;;;;;;5.98;100.00;99614.92;186972;1230;44109;-89
2023/02/03 10:53:21;;;;;;;1.00;0.60;;;;;;;6.01;100.00;99592.88;186893;1231;58443;-90
2023/02/03 10:57:26;;;;;;;2.40;1.40;;;;;;;6.06;100.00;99588.34;186666;1231;43906;-90
2023/02/03 11:01:43;;;;;;;2.70;1.10;;;;;;;6.12;100.00;99578.52;186685;1231;43647;-90
2023/02/03 11:05:46;;;;;;;1.10;0.90;;;;;;;6.10;100.00;99561.09;186868;1231;44032;-89
2023/02/03 11:09:49;;;;;;;1.70;1.10;;;;;;;6.15;100.00;99548.05;186889;1230;44152;-89
2023/02/03 11:13:53;;;;;;;2.30;0.90;;;;;;;6.16;100.00;99518.73;186935;1230;57910;-90
2023/02/03 11:17:56;;;;;;;3.70;1.50;;;;;;;6.16;100.00;99514.89;186559;1231;43988;-89
2023/02/03 11:21:59;;;;;;;3.10;1.30;;;;;;;6.22;100.00;99511.27;187003;1232;43868;-90
2023/02/03 11:26:11;;;;;;;3.50;1.00;;;;;;;6.27;100.00;99511.45;186874;1230;44072;-89
2023/02/03 11:30:16;;;;;;;3.00;1.30;;;;;;;6.32;100.00;99501.01;186840;1232;44346;-90
2023/02/03 11:34:31;;;;;;;3.70;1.20;;;;;;;6.39;100.00;99491.45;186977;1231;57882;-89
2023/02/03 11:38:39;;;;;;;3.20;1.30;;;;;;;6.44;100.00;99478.41;187057;1230;44006;-90
2023/02/03 11:42:44;;;;;;;2.40;1.10;;;;;;;6.49;100.00;99480.14;186847;1230;43719;-89
2023/02/03 11:46:51;;;;;;;2.10;1.10;;;;;;;6.50;100.00;99480.41;186702;1231;43892;-90
2023/02/03 11:51:14;;;;;;;3.40;1.70;;;;;;;6.54;100.00;99471.98;186649;1230;44035;-90
2023/02/03 11:55:45;;;;;;;1.90;1.40;;;;;;;6.58;100.00;99467.29;186856;1231;57870;-89
2023/02/03 12:00:02;;;;;;;4.10;2.00;;;;;;;6.64;100.00;99457.66;186966;1231;43987;-89
2023/02/03 12:04:42;;;;;;;2.60;1.70;;;;;;;6.73;100.00;99445.88;187051;1231;43692;-89
2023/02/03 12:08:56;;;;;;;1.40;1.30;;;;;;;6.77;100.00;99446.44;187172;1229;43710;-89
2023/02/03 12:13:27;;;;;;;1.70;1.20;;;;;;;6.85;100.00;99433.46;187036;1228;43734;-86
2023/02/03 12:17:40;;;;;;;3.30;1.80;;;;;;;6.91;100.00;99425.60;186844;1228;59228;-86
2023/02/03 12:22:13;;;;;;;2.80;1.50;;;;;;;6.98;100.00;99422.92;187196;1228;43944;-86
2023/02/03 12:26:21;;;;;;;2.30;2.00;;;;;;;7.06;100.00;99403.96;185725;1237;44109;-86
2023/02/03 12:30:29;;;;;;;2.90;1.20;;;;;;;7.25;100.00;99391.11;185671;1237;43872;-86
2023/02/03 12:34:40;;;;;;;2.90;1.00;;;;;;;7.40;100.00;99386.55;185840;1237;43782;-86
2023/02/03 12:38:55;;;;;;;5.20;2.50;;;;;;;7.46;100.00;99378.46;185789;1235;59411;-86
2023/02/03 12:43:14;;;;;;;1.10;1.00;;;;;;;7.52;100.00;99367.77;185721;1235;44377;-86
2023/02/03 12:47:27;;;;;;;1.80;1.10;;;;;;;7.50;100.00;99364.17;186021;1236;43761;-85
2023/02/03 12:51:35;;;;;;;6.20;1.90;;;;;;;7.48;100.00;99353.46;185744;1235;43762;-86
2023/02/03 12:55:44;;;;;;;1.90;1.40;;;;;;;7.49;100.00;99345.10;185943;1235;43774;-84
2023/02/03 13:00:02;;;;;;;1.60;1.20;;;;;;;7.53;100.00;99338.35;185548;1235;60313;-86
2023/02/03 13:04:23;;;;;;;5.80;2.60;;;;;;;7.63;100.00;99342.02;186963;1228;43728;-85
2023/02/03 13:08:50;;;;;;;4.50;2.70;;;;;;;7.56;100.00;99348.73;187124;1228;43721;-85
2023/02/03 13:12:56;;;;;;;3.00;1.30;;;;;;;7.52;100.00;99359.42;186992;1228;43853;-85
2023/02/03 13:17:10;;;;;;;1.40;1.20;;;;;;;7.45;100.00;99392.52;187147;1228;43737;-85
2023/02/03 13:21:13;;;;;;;7.60;3.90;;;;;;;7.37;100.00;99442.00;187021;1228;59709;-85
2023/02/03 13:25:31;;;;;;;47.30;21.10;;;;;;;7.11;100.00;99428.09;186903;1228;43725;-85
2023/02/03 13:29:57;;;;;;;57.50;23.00;;;;;;;7.10;100.00;99424.95;186909;1229;43698;-85
2023/02/03 13:34:03;;;;;;;10.80;6.80;;;;;;;7.10;100.00;99417.03;187202;1228;43714;-85
2023/02/03 13:38:23;;;;;;;9.60;2.70;;;;;;;7.09;100.00;99410.23;187111;1228;43729;-85
2023/02/03 13:42:28;;;;;;;7.90;4.10;;;;;;;7.07;100.00;99411.98;187081;1228;59396;-85
2023/02/03 13:46:34;;;;;;;13.40;6.20;;;;;;;7.04;100.00;99445.23;187102;1228;43649;-85
2023/02/03 13:50:37;;;;;;;11.50;5.80;;;;;;;7.03;100.00;99458.31;186945;1228;43724;-86
2023/02/03 13:54:43;;;;;;;6.10;3.40;;;;;;;7.06;100.00;99475.22;186945;1228;43736;-86
2023/02/03 14:03:23;;;;;;;7.40;4.20;;;;;;;7.09;100.00;99474.09;187600;1228;74912;-77
2023/02/03 14:07:39;;;;;;;6.70;3.40;;;;;;;7.05;100.00;99468.90;187959;1228;43622;-76
2023/02/03 14:11:44;;;;;;;6.50;2.80;;;;;;;7.06;100.00;99472.70;188014;1229;42914;-77
2023/02/03 14:16:22;;;;;;;15.30;3.90;;;;;;;7.07;100.00;99462.83;188063;1228;43757;-77
2023/02/03 14:20:28;;;;;;;9.80;2.90;;;;;;;7.06;100.00;99473.44;188231;1228;43006;-82
2023/02/03 14:24:43;;;;;;;10.60;5.50;;;;;;;7.03;100.00;99480.52;188116;1229;58363;-80
2023/02/03 14:33:52;;;;;;;9.80;3.20;;;;;;;7.04;100.00;99497.59;188026;1228;74005;-80
2023/02/03 14:38:01;;;;;;;8.30;3.30;;;;;;;7.01;100.00;99487.23;188004;1229;43690;-81
2023/02/03 14:42:10;;;;;;;4.00;2.80;;;;;;;7.04;100.00;99489.64;187759;1228;43655;-78
2023/02/03 14:46:50;;;;;;;6.80;3.80;;;;;;;7.02;100.00;99494.88;187944;1228;58239;-78
2023/02/03 14:51:12;;;;;;;8.80;3.30;;;;;;;7.00;100.00;99491.33;188223;1228;43804;-79
2023/02/03 14:55:35;;;;;;;9.30;4.20;;;;;;;6.94;100.00;99497.65;187742;1228;43637;-79
2023/02/03 14:59:49;;;;;;;8.10;4.20;;;;;;;6.94;100.00;99506.12;188204;1228;43594;-79
2023/02/03 15:04:21;;;;;;;16.50;5.00;;;;;;;6.96;100.00;99504.89;188028;1229;42918;-79
2023/02/03 15:13:28;;;;;;;11.10;3.30;;;;;;;7.05;100.00;99500.29;187904;1230;43630;-79
2023/02/03 15:17:33;;;;;;;12.40;4.50;;;;;;;7.08;100.00;99494.64;187703;1230;43788;-78
2023/02/03 15:21:48;;;;;;;9.30;3.70;;;;;;;7.04;100.00;99496.82;187654;1230;42975;-81
2023/02/03 15:25:56;;;;;;;14.10;4.40;;;;;;;7.11;100.00;99493.86;187873;1231;42972;-82
